Anza Borrego Desert State Park, California Weather observations

Data are for 10 minute period ending at time listed.
 Day   Time   Solar   Ave.   Ave.  Ave.  Vector  Max.   Baro.   Total    
  of    of     Rad.   Air    Rel.  Wind   Wind   Wind  Press.  Precip.   
Year   Day            Temp.  Hum.  Speed  Dir.   Gust                    
2016   (PST)  Kw/m2    F      %     mph   deg.    mph    mb.     in.     
-------------------------------------------------------------------------
 182    4:30   0.00   80.7    66    2.5   318     3.9   978.9    0.00 
 182    4:40   0.00   80.7    67    1.6   161     6.3   979.1    0.00 
 182    4:50   0.00   81.1    68    4.7   144     7.2   979.3    0.00 
 182    5:00   0.01   81.4    69    7.5   149    12.3   979.5    0.00 
 182    5:10   0.02   81.1    70    8.4   156    12.9   979.6    0.00 
 182    5:20   0.05   81.3    71    9.4   163    14.0   979.6    0.00 
 182    5:30   0.07   81.7    71    8.0   168    10.9   979.6    0.00 
 182    5:40   0.09   82.1    70    8.5   152    11.2   979.7    0.00 
 182    5:50   0.11   82.2    70    9.8   151    14.5   979.8    0.00 
 182    6:00   0.14   82.5    71   10.8   151    13.4   980.1    0.00 
 182    6:10   0.17   82.7    71   11.5   157    15.3   980.4    0.00 
 182    6:20   0.21   83.2    69    9.6   162    13.4   980.7    0.00 
 182    6:30   0.24   83.4    69   11.5   168    15.4   980.9    0.00 
 182    6:40   0.28   83.5    68   10.1   156    14.6   981.1    0.00 
 182    6:50   0.31   84.4    67    8.7   154    12.9   981.2    0.00 
 182    7:00   0.34   84.8    66    9.0   152    12.1   981.2    0.00 
 182    7:10   0.36   84.8    66    8.4   145    10.8   981.3    0.00 
 182    7:20   0.40   85.8    64    7.8   155    11.7   981.3    0.00 
 182    7:30   0.43   85.7    64    7.9   124    11.1   981.3    0.00 
 182    7:40   0.47   85.8    64    7.8   125    10.7   981.3    0.00 
 182    7:50   0.50   86.1    63    8.0   128    12.3   981.3    0.00 
 182    8:00   0.50   86.5    62    8.1   126    14.2   981.4    0.00 
 182    8:10   0.52   86.6    62    7.9   126    11.3   981.5    0.00 
 182    8:20   0.60   87.5    60    8.3   112    15.2   981.7    0.00 
 182    8:30   0.41   87.0    61    7.7   118    12.3   981.8    0.00 
 182    8:40   0.35   87.1    61    6.5   141    11.4   981.8    0.00 
 182    8:50   0.44   87.3    60    6.1   161    11.8   981.8    0.00 
 182    9:00   0.43   88.5    58    7.2   180    12.8   981.7    0.00 
 182    9:10   0.71   89.5    56    4.6   158     8.9   981.8    0.00 
 182    9:20   0.36   89.8    55    3.1   182     9.2   981.9    0.00 
 182    9:30   0.81   91.9    52    4.2   206     8.1   981.9    0.00 
 182    9:40   0.80   91.8    51    7.6   248    12.3   981.9    0.00 
 182    9:50   0.82   91.9    50    5.6   215    11.2   981.9    0.00 
 182   10:00   0.84   92.2    50    3.2   321     5.8   981.8    0.00 
 182   10:10   0.85   94.3    47    3.8   190    10.3   981.8    0.00 
 182   10:20   0.86   93.3    48    5.9   125    11.9   981.8    0.00 
 182   10:30   0.89   93.9    47    4.0    90    12.1   981.8    0.00 
 182   10:40   0.90   94.4    46    8.0   126    11.5   981.7    0.00 
 182   10:50   0.91   94.5    46    5.4    95    10.1   981.6    0.00 
 182   11:00   0.92   94.9    45    5.0   134    11.2   981.5    0.00 
 182   11:10   0.94   95.8    44    5.3   114     9.5   981.4    0.00 
 182   11:20   0.93   95.4    45    6.4   149    11.3   981.3    0.00 
 182   11:30   0.94   95.8    44    8.1   110    13.5   981.1    0.00 
 182   11:40   0.93   95.7    44    6.9   143    11.6   981.1    0.00 
 182   11:50   0.94   96.2    43    7.5   113    11.5   981.0    0.00 
 182   12:00   0.94   97.2    41    4.2   128     8.4   980.9    0.00 
 182   12:10   0.94   96.8    41    4.8   137     7.9   980.7    0.00 
 182   12:20   0.94   97.4    40    5.5    97    13.2   980.5    0.00 
 182   12:30   0.94   97.4    40    3.9   107     9.2   980.3    0.00 
 182   12:40   0.91   98.3    38    5.0   173    13.0   980.1    0.00 
 182   12:50   0.93   98.9    36    6.3   131    11.0   980.0    0.00 
 182   13:00   0.91   99.1    36    4.4    91    11.5   979.8    0.00 
 182   13:10   0.91   99.5    36    4.6    79     9.6   979.7    0.00 
 182   13:20   0.90  100.4    35    6.5    95    11.8   979.6    0.00 
 182   13:30   0.89  100.3    35    5.3    68    10.9   979.5    0.00 
 182   13:40   0.87  100.9    34    3.8    50     8.6   979.3    0.00 
 182   13:50   0.85  101.1    33    7.0    80    12.3   979.0    0.00 
 182   14:00   0.84  101.4    33    6.3   106    11.2   978.9    0.00 
 182   14:10   0.82  101.1    34    4.0    84     8.7   978.8    0.00 
 182   14:20   0.81  102.9    33    3.6   100     7.4   978.6    0.00 
 182   14:30   0.79  102.5    33    8.6   100    12.3   978.4    0.00 
 182   14:40   0.76  102.1    33    8.8   104    16.6   978.2    0.00 
 182   14:50   0.71  101.9    33    5.3    87     9.8   978.2    0.00 
 182   15:00   0.20  101.4    34    5.2    86    11.9   978.0    0.00 
 182   15:10   0.08   99.5    34    4.3   112    10.8   977.9    0.00 
 182   15:20   0.08  100.1    34    1.9   134    14.0   977.7    0.00 
 182   15:30   0.08   99.6    35    7.9    92    12.9   977.6    0.00 
 182   15:40   0.08   98.7    37    3.3    35     7.0   977.3    0.00 
 182   15:50   0.08   99.0    37    4.6    74     9.2   977.1    0.00 
 182   16:00   0.08   98.8    37    8.1    64    12.5   977.0    0.00 
 182   16:10   0.17   99.0    37    6.4    67     9.9   976.8    0.00 
 182   16:20   0.49  100.6    35    6.1   125    10.4   976.9    0.00 
 182   16:30   0.48  101.1    34    6.7   110     9.5   976.8    0.00 
 182   16:40   0.45  101.4    34    6.8   124     9.9   976.8    0.00 
 182   16:50   0.40  101.4    33    6.9   104    12.0   976.8    0.00 
 182   17:00   0.34  101.8    33    3.5    54     6.6   976.8    0.00 
 182   17:10   0.28  102.7    32    3.0    69     8.6   976.7    0.00 
 182   17:20   0.24  101.7    32    5.8    70    11.7   976.8    0.00 
 182   17:30   0.20  101.6    32    3.8    32     6.5   976.8    0.00 
 182   17:40   0.14  101.9    31    3.0    92     7.0   976.8    0.00 
 182   17:50   0.05  100.6    31    3.1    77     8.1   976.8    0.00 
 182   18:00   0.05  100.1    31    1.9   157     8.0   976.8    0.00 
 182   18:10   0.04   99.4    34    9.1    91    15.0   976.9    0.00 
 182   18:20   0.03   98.9    35   10.3   104    13.4   977.0    0.00 
 182   18:30   0.03   98.4    35    8.3    90    12.9   977.0    0.00 
 182   18:40   0.01   98.1    36    9.5   104    14.2   976.9    0.00 
 182   18:50   0.01   97.6    36    9.2    98    12.7   977.0    0.00 
 182   19:00   0.00   97.4    36    9.7   106    13.4   977.0    0.00 
 182   19:10   0.00   97.3    36    8.0   106    12.4   977.1    0.00 
 182   19:20   0.00   97.0    36    5.4    88    10.4   977.1    0.00 
 182   19:30   0.00   96.8    36    2.0    91     5.1   977.1    0.00 
 182   19:40   0.00   96.4    36    0.9   349     1.8   977.1    0.00 
 182   19:50   0.00   96.2    36    3.5   332     5.3   977.2    0.00 
 182   20:00   0.00   96.0    36    4.6   326     5.9   977.3    0.00 
 182   20:10   0.00   96.1    36    5.6   355     9.6   977.4    0.00 
 182   20:20   0.00   95.9    36    4.2    17     8.4   977.5    0.00 
 182   20:30   0.00   95.7    36    4.3    68    11.5   977.7    0.00 
 182   20:40   0.00   95.4    36    4.3    54     6.4   977.9    0.00 
 182   20:50   0.00   94.9    37    5.7    47     8.1   977.9    0.00 
 182   21:00   0.00   94.4    37    4.0    36     6.7   978.0    0.00 
 182   21:10   0.00   94.1    38    4.9     8     6.7   978.2    0.00 
 182   21:20   0.00   93.9    38    5.6     7     7.4   978.3    0.00 
 182   21:30   0.00   93.8    38    5.2    19     6.9   978.5    0.00 
 182   21:40   0.00   93.6    38    5.6    25     8.3   978.5    0.00 
 182   21:50   0.00   93.5    38    5.7    11     8.3   978.5    0.00 
 182   22:00   0.00   93.0    38    5.5     5     7.0   978.5    0.00 
 182   22:10   0.00   92.6    39    4.5    11     6.1   978.5    0.00 
 182   22:20   0.00   92.2    39    4.0     0     6.5   978.4    0.00 
 182   22:30   0.00   92.0    39    4.0   342     5.3   978.3    0.00 
 182   22:40   0.00   92.0    39    4.9     8     6.7   978.4    0.00 
 182   22:50   0.00   91.8    39    5.7    25     7.8   978.3    0.00 
 182   23:00   0.00   91.8    39    4.9    16     6.2   978.3    0.00 
 182   23:10   0.00   91.6    39    3.2   335     5.3   978.1    0.00 
 182   23:20   0.00   91.3    40    1.3   311     4.5   978.0    0.00 
 182   23:30   0.00   91.0    40    1.4   314     3.5   978.0    0.00 
 182   23:40   0.00   91.1    40    1.4     2     3.3   978.1    0.00 
 182   23:50   0.00   91.1    40    2.3    26     4.7   978.2    0.00 
 183    0:00   0.00   90.8    40    2.2   329     4.1   978.2    0.00 
 183    0:10   0.00   90.6    40    1.4   349     3.9   978.0    0.00 
 183    0:20   0.00   90.1    41    1.3   151     4.1   978.1    0.00 
 183    0:30   0.00   89.1    42    4.6   140     8.3   978.2    0.00 
 183    0:40   0.00   89.5    43    4.4   130     6.6   978.2    0.00 
 183    0:50   0.00   88.9    45    5.1   133     6.4   978.1    0.00 
 183    1:00   0.00   88.5    46    3.7   152     5.6   978.1    0.00 
 183    1:10   0.00   87.8    48    2.9   169     4.5   978.1    0.00 
 183    1:20   0.00   87.2    49    2.9   156     5.2   978.1    0.00 
 183    1:30   0.00   86.9    50    4.3   141     6.7   978.0    0.00 
 183    1:40   0.00   86.7    50    4.3   157     7.9   978.0    0.00 
 183    1:50   0.00   86.4    50    1.4    93     2.5   978.0    0.00 
 183    2:00   0.00   86.3    50    3.0   102     4.8   978.0    0.00 
 183    2:10   0.00   85.9    50    2.7   132     4.7   978.1    0.00 
 183    2:20   0.00   84.9    51    1.9   217     3.4   978.1    0.00 
 183    2:30   0.00   84.9    51    0.9   186     2.4   978.2    0.00 
 183    2:40   0.00   84.8    52    0.2   155     1.6   978.3    0.00 
 183    2:50   0.00   84.5    52    2.1   211     3.1   978.1    0.00 
 183    3:00   0.00   83.9    52    2.2   154     3.4   978.1    0.00 
 183    3:10   0.00   83.6    52    2.9    92     4.0   978.1    0.00 
 183    3:20   0.00   84.5    51    3.2    85     4.6   978.2    0.00 
 183    3:30   0.00   84.1    51    0.9    98     3.1   978.4    0.00 
 183    3:40   0.00   83.0    53    1.2   222     2.2   978.5    0.00 
 183    3:50   0.00   83.3    53    0.9   158     2.4   978.7    0.00 
 183    4:00   0.00   83.4    52    0.2   245     0.9   978.8    0.00 
 183    4:10   0.00   82.5    54    1.4    99     3.2   978.9    0.00 
 183    4:20   0.00   83.2    53    1.7    89     3.4   979.1    0.00 

Return to Anza Borrego Desert State Park graphs page.


Western Regional Climate Center,wrcc@dri.edu